Time;durP1;ratioP1;P1;durP2;ratioP2;P2;SDS_P1;SDS_P2;PMS_P1;PMS_P2;Temp;Humidity;BMP_temperature;BMP_pressure;BME280_temperature;BME280_humidity;BME280_pressure;Samples;Min_cycle;Max_cycle;Signal;HPM_P1;HPM_P2
2023/01/12 00:01:31;;;;;;;23.57;16.23;;;;;;;;;;4399325;32;318399;-87
2023/01/12 00:03:58;;;;;;;24.73;15.93;;;;;;;;;;4396848;32;318760;-85
2023/01/12 00:06:25;;;;;;;27.00;17.53;;;;;;;;;;4404890;32;318272;-84
2023/01/12 00:08:53;;;;;;;27.57;16.63;;;;;;;;;;4418364;32;317880;-83
2023/01/12 00:11:20;;;;;;;30.27;19.83;;;;;;;;;;4400876;32;417484;-84
2023/01/12 00:13:47;;;;;;;34.43;18.50;;;;;;;;;;4414461;32;317657;-91
2023/01/12 00:16:36;;;;;;;29.83;18.90;;;;;;;;;;4404515;32;317862;-85
2023/01/12 00:19:09;;;;;;;24.73;18.03;;;;;;;;;;4404751;32;318484;-82
2023/01/12 00:21:48;;;;;;;28.23;17.83;;;;;;;;;;4414604;32;317841;-88
2023/01/12 00:24:16;;;;;;;23.20;15.60;;;;;;;;;;4403004;32;353325;-81
2023/01/12 00:26:42;;;;;;;21.27;14.20;;;;;;;;;;4414544;32;318392;-84
2023/01/12 00:29:09;;;;;;;24.30;15.70;;;;;;;;;;4405772;32;336220;-83
2023/01/12 00:31:37;;;;;;;23.80;15.03;;;;;;;;;;4427823;32;317537;-85
2023/01/12 00:34:04;;;;;;;22.60;15.10;;;;;;;;;;4425587;32;316789;-88
2023/01/12 00:36:31;;;;;;;21.03;14.03;;;;;;;;;;4429238;32;318101;-82
2023/01/12 00:38:57;;;;;;;20.73;15.33;;;;;;;;;;4412124;32;317947;-89
2023/01/12 00:46:51;;;;;;;22.63;15.23;;;;;;;;;;4413978;32;318292;-85
2023/01/12 00:49:18;;;;;;;23.27;14.13;;;;;;;;;;4404288;32;318333;-81
2023/01/12 00:51:45;;;;;;;22.17;14.60;;;;;;;;;;4413977;32;318769;-84
2023/01/12 00:54:11;;;;;;;24.27;14.27;;;;;;;;;;4402974;32;318119;-82
2023/01/12 00:56:39;;;;;;;21.30;13.83;;;;;;;;;;4413576;32;317966;-86
2023/01/12 00:59:06;;;;;;;19.23;13.23;;;;;;;;;;4402804;32;317884;-86
2023/01/12 01:01:34;;;;;;;22.97;15.53;;;;;;;;;;4410065;32;317793;-89
2023/01/12 01:04:02;;;;;;;25.23;15.87;;;;;;;;;;4411147;32;318416;-87
2023/01/12 01:06:29;;;;;;;25.47;16.70;;;;;;;;;;4412499;32;317796;-85
2023/01/12 01:08:55;;;;;;;33.83;19.73;;;;;;;;;;4387715;32;318246;-85
2023/01/12 01:11:22;;;;;;;32.27;18.00;;;;;;;;;;4412366;32;318501;-85
2023/01/12 01:13:49;;;;;;;27.67;17.10;;;;;;;;;;4397657;32;317595;-82
2023/01/12 01:16:18;;;;;;;29.27;16.60;;;;;;;;;;4388366;32;317542;-86
2023/01/12 01:18:45;;;;;;;27.30;16.87;;;;;;;;;;4412930;32;318191;-85
2023/01/12 01:21:14;;;;;;;32.77;20.20;;;;;;;;;;4403391;32;318562;-85
2023/01/12 01:23:42;;;;;;;31.97;20.17;;;;;;;;;;4412479;32;318260;-82
2023/01/12 01:26:11;;;;;;;30.43;18.27;;;;;;;;;;4402077;32;318420;-86
2023/01/12 01:28:38;;;;;;;28.57;18.63;;;;;;;;;;4413734;32;318663;-91
2023/01/12 01:31:06;;;;;;;24.87;16.87;;;;;;;;;;4403217;32;318319;-81
2023/01/12 01:33:33;;;;;;;32.60;19.70;;;;;;;;;;4397590;32;339715;-83
2023/01/12 01:36:00;;;;;;;36.93;21.83;;;;;;;;;;4388488;32;318612;-86
2023/01/12 01:38:29;;;;;;;37.57;20.77;;;;;;;;;;4396600;32;317713;-88
2023/01/12 01:40:56;;;;;;;38.30;22.40;;;;;;;;;;4388150;32;317805;-85
2023/01/12 01:43:25;;;;;;;37.67;21.20;;;;;;;;;;4408740;32;317799;-85
2023/01/12 01:46:00;;;;;;;35.20;22.67;;;;;;;;;;4397721;32;318659;-81
2023/01/12 01:48:29;;;;;;;39.03;21.40;;;;;;;;;;4383425;32;417797;-90
2023/01/12 01:50:58;;;;;;;34.93;21.80;;;;;;;;;;4383455;32;318506;-87
2023/01/12 01:53:29;;;;;;;25.23;17.60;;;;;;;;;;4398043;32;318307;-85
2023/01/12 01:56:01;;;;;;;27.37;17.07;;;;;;;;;;4386568;32;359542;-85
2023/01/12 01:58:33;;;;;;;25.93;16.50;;;;;;;;;;4396793;32;317694;-89
2023/01/12 02:01:00;;;;;;;22.30;14.87;;;;;;;;;;4387872;32;318292;-82
2023/01/12 02:03:28;;;;;;;25.43;16.17;;;;;;;;;;4397985;32;318046;-82
2023/01/12 02:05:57;;;;;;;30.77;16.20;;;;;;;;;;4392534;32;318080;-85
2023/01/12 02:08:30;;;;;;;27.03;16.67;;;;;;;;;;4412802;32;318889;-86
2023/01/12 02:10:59;;;;;;;28.37;18.10;;;;;;;;;;4401643;32;318315;-92
2023/01/12 02:16:20;;;;;;;31.70;18.80;;;;;;;;;;4403012;32;317768;-87
2023/01/12 02:19:01;;;;;;;26.13;18.10;;;;;;;;;;4412916;32;318367;-85
2023/01/12 02:21:51;;;;;;;25.97;17.77;;;;;;;;;;4400009;32;419066;-83
2023/01/12 02:24:40;;;;;;;26.60;17.43;;;;;;;;;;4403372;32;318447;-86
2023/01/12 02:27:38;;;;;;;31.60;19.33;;;;;;;;;;4402636;32;318405;-87
2023/01/12 02:30:41;;;;;;;30.00;17.90;;;;;;;;;;4376681;32;317949;-84
2023/01/12 02:33:24;;;;;;;24.33;16.17;;;;;;;;;;4387762;32;318764;-81
2023/01/12 02:35:57;;;;;;;26.17;16.57;;;;;;;;;;4397562;32;317799;-84
2023/01/12 02:38:35;;;;;;;24.97;16.07;;;;;;;;;;4386908;32;418976;-88
2023/01/12 02:41:09;;;;;;;24.60;16.13;;;;;;;;;;4394512;32;317993;-80
2023/01/12 02:43:38;;;;;;;26.57;15.93;;;;;;;;;;4416362;32;317663;-86
2023/01/12 02:46:13;;;;;;;25.87;16.60;;;;;;;;;;4405739;32;318324;-85
2023/01/12 02:48:46;;;;;;;24.47;15.40;;;;;;;;;;4414859;32;317733;-82
2023/01/12 02:51:18;;;;;;;25.43;14.67;;;;;;;;;;4404716;32;318750;-86
2023/01/12 02:53:48;;;;;;;24.03;15.23;;;;;;;;;;4414884;32;318173;-87
2023/01/12 02:56:21;;;;;;;23.00;15.23;;;;;;;;;;4405122;32;338247;-81
2023/01/12 02:58:53;;;;;;;24.80;15.50;;;;;;;;;;4416146;32;318640;-83
2023/01/12 03:01:22;;;;;;;24.03;15.27;;;;;;;;;;4403172;32;417296;-87
2023/01/12 03:03:52;;;;;;;26.77;15.77;;;;;;;;;;4414958;32;318333;-80
2023/01/12 03:06:18;;;;;;;24.60;16.53;;;;;;;;;;4397057;32;317594;-84
2023/01/12 03:08:49;;;;;;;25.60;16.53;;;;;;;;;;4400905;32;317863;-85
2023/01/12 03:11:19;;;;;;;29.60;18.50;;;;;;;;;;4388972;32;326268;-81
2023/01/12 03:13:49;;;;;;;33.30;18.67;;;;;;;;;;4410892;32;350146;-84
2023/01/12 03:16:18;;;;;;;29.07;17.30;;;;;;;;;;4406634;32;317726;-84
2023/01/12 03:18:53;;;;;;;30.83;17.97;;;;;;;;;;4416510;32;318120;-81
2023/01/12 03:21:27;;;;;;;38.67;19.47;;;;;;;;;;4402717;32;407083;-85
2023/01/12 03:23:59;;;;;;;36.83;18.60;;;;;;;;;;4414422;32;350755;-84
2023/01/12 03:26:28;;;;;;;25.57;15.27;;;;;;;;;;4404689;32;417456;-80
2023/01/12 03:29:03;;;;;;;27.23;15.47;;;;;;;;;;4408491;32;318034;-84
2023/01/12 03:31:31;;;;;;;21.60;12.93;;;;;;;;;;4418923;32;317539;-85
2023/01/12 03:33:59;;;;;;;17.60;11.90;;;;;;;;;;4408676;32;344865;-85
2023/01/12 03:36:35;;;;;;;19.57;12.13;;;;;;;;;;4419652;32;318189;-81
2023/01/12 03:39:11;;;;;;;19.67;13.40;;;;;;;;;;4408309;32;318460;-80
2023/01/12 03:41:48;;;;;;;18.33;13.03;;;;;;;;;;4411745;32;318094;-83
2023/01/12 03:44:20;;;;;;;19.00;12.77;;;;;;;;;;4390912;32;318378;-83
2023/01/12 03:46:53;;;;;;;21.10;13.53;;;;;;;;;;4404320;32;317435;-84
2023/01/12 03:49:26;;;;;;;17.30;12.13;;;;;;;;;;4391471;32;418741;-81
2023/01/12 03:51:56;;;;;;;21.33;13.80;;;;;;;;;;4404131;32;317419;-85
2023/01/12 03:54:24;;;;;;;20.17;11.73;;;;;;;;;;4390774;32;418214;-83
2023/01/12 03:56:53;;;;;;;19.00;12.37;;;;;;;;;;4402279;32;317568;-84
2023/01/12 03:59:20;;;;;;;17.33;12.00;;;;;;;;;;4410519;32;417397;-86
2023/01/12 04:01:47;;;;;;;15.77;9.97;;;;;;;;;;4429282;32;317500;-85
2023/01/12 04:04:14;;;;;;;22.77;14.70;;;;;;;;;;4421119;32;316948;-84
2023/01/12 04:06:42;;;;;;;46.53;26.60;;;;;;;;;;4430378;32;316054;-85
2023/01/12 04:09:09;;;;;;;40.97;25.93;;;;;;;;;;4422819;32;317024;-87
2023/01/12 04:14:20;;;;;;;36.53;22.17;;;;;;;;;;4423211;32;386964;-81
2023/01/12 04:16:47;;;;;;;31.17;20.43;;;;;;;;;;4436195;32;316242;-87
2023/01/12 04:19:13;;;;;;;22.13;14.27;;;;;;;;;;4425072;32;316783;-85
2023/01/12 04:24:26;;;;;;;13.40;9.33;;;;;;;;;;4397468;32;387860;-90
2023/01/12 04:26:52;;;;;;;11.57;9.07;;;;;;;;;;4417330;32;317148;-85
2023/01/12 04:29:19;;;;;;;12.53;9.23;;;;;;;;;;4406451;32;317213;-85
2023/01/12 04:31:46;;;;;;;21.73;10.53;;;;;;;;;;4415266;32;316456;-90
2023/01/12 04:34:13;;;;;;;15.43;10.07;;;;;;;;;;4403328;32;317601;-91
2023/01/12 04:36:42;;;;;;;13.37;8.97;;;;;;;;;;4414413;32;318219;-91
2023/01/12 04:39:09;;;;;;;12.00;7.93;;;;;;;;;;4404447;32;317118;-82
2023/01/12 04:41:36;;;;;;;15.73;10.80;;;;;;;;;;4414636;32;317060;-83
2023/01/12 04:44:03;;;;;;;20.97;10.37;;;;;;;;;;4404463;32;317850;-89
2023/01/12 04:46:30;;;;;;;22.80;11.67;;;;;;;;;;4413428;32;318325;-82
2023/01/12 04:48:57;;;;;;;17.27;11.23;;;;;;;;;;4394823;32;317387;-83
2023/01/12 04:51:24;;;;;;;17.73;11.77;;;;;;;;;;4413097;32;318413;-83
2023/01/12 04:53:52;;;;;;;26.17;13.93;;;;;;;;;;4413132;32;318125;-83
2023/01/12 04:56:19;;;;;;;25.87;14.40;;;;;;;;;;4404096;32;318125;-82
2023/01/12 04:58:46;;;;;;;24.90;16.13;;;;;;;;;;4414049;32;318142;-87
2023/01/12 05:01:15;;;;;;;21.50;15.17;;;;;;;;;;4404201;32;318295;-91
2023/01/12 05:03:42;;;;;;;31.00;17.73;;;;;;;;;;4414000;32;317751;-85
2023/01/12 05:06:09;;;;;;;23.67;15.83;;;;;;;;;;4401283;32;318456;-90
2023/01/12 05:11:27;;;;;;;22.47;15.20;;;;;;;;;;4386838;32;388471;-85
2023/01/12 05:13:54;;;;;;;24.00;15.93;;;;;;;;;;4397499;32;318165;-85
2023/01/12 05:16:20;;;;;;;31.23;17.57;;;;;;;;;;4385647;32;417167;-86
2023/01/12 05:18:47;;;;;;;49.97;26.73;;;;;;;;;;4410418;32;318036;-88
2023/01/12 05:21:16;;;;;;;48.57;27.73;;;;;;;;;;4403947;32;317497;-85
2023/01/12 05:23:43;;;;;;;55.23;31.43;;;;;;;;;;4413592;32;317642;-85
2023/01/12 05:26:15;;;;;;;69.23;34.57;;;;;;;;;;4388033;32;317229;-84
2023/01/12 05:28:43;;;;;;;63.20;37.50;;;;;;;;;;4397949;32;317549;-85
2023/01/12 05:31:13;;;;;;;76.13;41.23;;;;;;;;;;4388373;32;318314;-85
2023/01/12 05:33:42;;;;;;;76.57;44.07;;;;;;;;;;4397990;32;318326;-83
2023/01/12 05:36:11;;;;;;;86.20;45.60;;;;;;;;;;4387032;32;317825;-87
2023/01/12 05:38:38;;;;;;;58.50;36.27;;;;;;;;;;4396725;32;317635;-84
2023/01/12 05:41:08;;;;;;;57.27;34.97;;;;;;;;;;4390954;32;318315;-79
2023/01/12 05:43:50;;;;;;;52.70;32.30;;;;;;;;;;4412630;32;317851;-87
2023/01/12 05:46:20;;;;;;;54.80;31.47;;;;;;;;;;4402150;32;318436;-89
2023/01/12 05:48:46;;;;;;;49.10;31.53;;;;;;;;;;4412824;32;318393;-89
2023/01/12 05:51:14;;;;;;;52.17;33.17;;;;;;;;;;4395783;32;318193;-86
2023/01/12 05:53:41;;;;;;;36.07;24.47;;;;;;;;;;4397771;32;317952;-83
2023/01/12 05:56:10;;;;;;;43.27;25.27;;;;;;;;;;4387924;32;318094;-85
2023/01/12 05:58:37;;;;;;;46.63;30.53;;;;;;;;;;4397428;32;318286;-82
2023/01/12 06:01:07;;;;;;;44.30;29.23;;;;;;;;;;4386576;32;317968;-85
2023/01/12 06:03:38;;;;;;;50.00;30.87;;;;;;;;;;4396895;32;317630;-83
2023/01/12 06:06:05;;;;;;;46.30;27.97;;;;;;;;;;4384240;32;317637;-85
2023/01/12 06:08:41;;;;;;;46.87;26.57;;;;;;;;;;4421987;32;318189;-83
2023/01/12 06:13:55;;;;;;;53.80;35.27;;;;;;;;;;4397411;32;317770;-87
2023/01/12 06:13:55;;;;;;;66.80;37.03;;;;;;;;;;4395967;32;320612;-86
2023/01/12 06:16:22;;;;;;;51.63;34.17;;;;;;;;;;4397441;32;318192;-87
2023/01/12 06:18:50;;;;;;;62.17;39.10;;;;;;;;;;4410115;32;317469;-87
2023/01/12 06:21:17;;;;;;;66.07;41.70;;;;;;;;;;4403501;32;317606;-85
2023/01/12 06:23:44;;;;;;;65.47;41.33;;;;;;;;;;4413164;32;318064;-85
2023/01/12 06:26:11;;;;;;;62.40;39.23;;;;;;;;;;4404402;32;317508;-81
2023/01/12 06:28:41;;;;;;;95.87;62.87;;;;;;;;;;4416073;32;318121;-83
2023/01/12 06:31:10;;;;;;;84.00;53.17;;;;;;;;;;4399162;32;317597;-84
2023/01/12 06:33:36;;;;;;;73.80;46.73;;;;;;;;;;4413175;32;318462;-86
2023/01/12 06:36:06;;;;;;;83.10;47.13;;;;;;;;;;4402864;32;317712;-85
2023/01/12 06:38:35;;;;;;;71.10;41.70;;;;;;;;;;4412935;32;317383;-88
2023/01/12 06:41:03;;;;;;;67.40;41.93;;;;;;;;;;4398588;32;318477;-87
2023/01/12 06:43:30;;;;;;;71.97;42.43;;;;;;;;;;4396649;32;316785;-85
2023/01/12 06:45:57;;;;;;;64.97;38.53;;;;;;;;;;4386126;32;317702;-86
2023/01/12 06:48:24;;;;;;;67.37;38.17;;;;;;;;;;4408331;32;339966;-85
2023/01/12 06:50:54;;;;;;;91.37;52.10;;;;;;;;;;4411915;32;317483;-82
2023/01/12 06:53:22;;;;;;;145.23;82.60;;;;;;;;;;4397887;32;416200;-91
2023/01/12 06:55:49;;;;;;;104.83;64.50;;;;;;;;;;4410759;32;318578;-87
2023/01/12 06:58:16;;;;;;;76.13;48.90;;;;;;;;;;4400072;32;319244;-86
2023/01/12 07:00:45;;;;;;;71.30;39.87;;;;;;;;;;4412072;32;317794;-93
2023/01/12 07:03:17;;;;;;;68.17;43.03;;;;;;;;;;4403197;32;318577;-89
2023/01/12 07:05:45;;;;;;;54.70;33.37;;;;;;;;;;4406480;32;317622;-90
2023/01/12 07:08:17;;;;;;;47.70;29.97;;;;;;;;;;4407307;32;318378;-87
2023/01/12 07:10:46;;;;;;;42.40;29.27;;;;;;;;;;4413390;32;317328;-82
2023/01/12 07:13:12;;;;;;;56.57;31.47;;;;;;;;;;4400864;32;318771;-83
2023/01/12 07:15:39;;;;;;;70.23;46.07;;;;;;;;;;4412810;32;318082;-85
2023/01/12 07:18:06;;;;;;;92.43;58.63;;;;;;;;;;4401678;32;318231;-85
2023/01/12 07:20:33;;;;;;;111.20;62.80;;;;;;;;;;4412144;32;318666;-82
2023/01/12 07:22:59;;;;;;;98.37;58.93;;;;;;;;;;4403434;32;359737;-84
2023/01/12 07:25:27;;;;;;;90.47;55.40;;;;;;;;;;4414904;32;317485;-83
2023/01/12 07:27:57;;;;;;;86.03;54.97;;;;;;;;;;4414921;32;317775;-85
2023/01/12 07:30:25;;;;;;;77.37;49.13;;;;;;;;;;4401001;32;417400;-84
2023/01/12 07:32:52;;;;;;;79.53;50.33;;;;;;;;;;4414764;32;317778;-85
2023/01/12 07:35:19;;;;;;;86.53;49.03;;;;;;;;;;4403714;32;318428;-81
2023/01/12 07:37:50;;;;;;;74.40;47.00;;;;;;;;;;4415236;32;318628;-82
2023/01/12 07:40:18;;;;;;;62.60;42.63;;;;;;;;;;4403811;32;318704;-88
2023/01/12 07:42:44;;;;;;;50.03;35.40;;;;;;;;;;4401777;32;318028;-87
2023/01/12 07:45:14;;;;;;;77.47;42.90;;;;;;;;;;4406435;32;317471;-85
2023/01/12 07:47:40;;;;;;;278.17;94.60;;;;;;;;;;4414198;32;317504;-84
2023/01/12 07:50:08;;;;;;;429.30;140.20;;;;;;;;;;4405149;32;319797;-82
2023/01/12 07:52:35;;;;;;;66.43;38.67;;;;;;;;;;4416588;32;319719;-84
2023/01/12 07:55:01;;;;;;;42.57;27.90;;;;;;;;;;4408663;32;318156;-87
2023/01/12 07:57:28;;;;;;;47.40;25.93;;;;;;;;;;4416652;32;318285;-86
2023/01/12 07:59:55;;;;;;;25.13;16.37;;;;;;;;;;4413023;32;318124;-86
2023/01/12 08:02:24;;;;;;;22.87;15.53;;;;;;;;;;4425472;32;316885;-86
2023/01/12 08:04:50;;;;;;;21.80;14.40;;;;;;;;;;4431377;32;317294;-84
2023/01/12 08:07:17;;;;;;;152.27;58.13;;;;;;;;;;4410025;32;317924;-85
2023/01/12 08:09:44;;;;;;;57.93;30.30;;;;;;;;;;4425648;32;319105;-83
2023/01/12 08:12:11;;;;;;;26.13;16.17;;;;;;;;;;4406189;32;317454;-85
2023/01/12 08:14:39;;;;;;;18.97;12.77;;;;;;;;;;4414817;32;318474;-89
2023/01/12 08:17:10;;;;;;;19.07;13.13;;;;;;;;;;4405041;32;318172;-92
2023/01/12 08:19:44;;;;;;;17.77;13.87;;;;;;;;;;4415081;32;317748;-87
2023/01/12 08:22:16;;;;;;;17.17;13.10;;;;;;;;;;4403622;32;318274;-85
2023/01/12 08:24:48;;;;;;;17.40;12.60;;;;;;;;;;4414568;32;321657;-88
2023/01/12 08:27:16;;;;;;;17.30;12.80;;;;;;;;;;4403640;32;318328;-87
2023/01/12 08:29:46;;;;;;;201.77;97.37;;;;;;;;;;4414591;32;317689;-88
2023/01/12 08:32:16;;;;;;;34.20;21.67;;;;;;;;;;4403669;32;318686;-86
2023/01/12 08:34:47;;;;;;;25.40;17.27;;;;;;;;;;4413039;32;318662;-85
2023/01/12 08:37:16;;;;;;;23.93;17.00;;;;;;;;;;4404622;32;318242;-88
2023/01/12 08:39:43;;;;;;;25.40;16.70;;;;;;;;;;4418024;32;317698;-84
2023/01/12 08:42:10;;;;;;;21.30;16.00;;;;;;;;;;4403670;32;318006;-82
2023/01/12 08:44:37;;;;;;;23.07;15.00;;;;;;;;;;4413877;32;318549;-82
2023/01/12 08:47:05;;;;;;;23.63;14.83;;;;;;;;;;4402563;32;317603;-87
2023/01/12 08:49:33;;;;;;;36.23;23.80;;;;;;;;;;4412884;32;318106;-87
2023/01/12 08:52:02;;;;;;;39.83;24.83;;;;;;;;;;4404444;32;317500;-88
2023/01/12 08:54:29;;;;;;;26.10;18.33;;;;;;;;;;4415090;32;318814;-87
2023/01/12 08:57:01;;;;;;;28.27;17.47;;;;;;;;;;4402046;32;317641;-83
2023/01/12 08:59:29;;;;;;;36.87;24.40;;;;;;;;;;4415958;32;316359;-87
2023/01/12 09:01:56;;;;;;;42.70;26.20;;;;;;;;;;4400810;32;318499;-86
2023/01/12 09:04:24;;;;;;;35.43;19.37;;;;;;;;;;4407112;32;317655;-92
2023/01/12 09:06:51;;;;;;;24.07;16.73;;;;;;;;;;4417147;32;317546;-88
2023/01/12 09:09:20;;;;;;;25.43;15.07;;;;;;;;;;4390580;32;318614;-86
2023/01/12 09:11:49;;;;;;;19.50;10.67;;;;;;;;;;4385578;32;318090;-88
2023/01/12 09:14:16;;;;;;;19.57;11.33;;;;;;;;;;4387554;32;318474;-86
2023/01/12 09:16:44;;;;;;;25.03;13.90;;;;;;;;;;4398217;32;318097;-84
2023/01/12 09:19:11;;;;;;;16.67;11.93;;;;;;;;;;4387034;32;324851;-89
2023/01/12 09:21:40;;;;;;;30.67;21.60;;;;;;;;;;4398710;32;318530;-88
2023/01/12 09:24:07;;;;;;;21.23;15.33;;;;;;;;;;4388541;32;317483;-87
2023/01/12 09:26:39;;;;;;;25.30;12.93;;;;;;;;;;4398174;32;317664;-89
2023/01/12 09:29:06;;;;;;;19.13;12.00;;;;;;;;;;4386249;32;318250;-84
2023/01/12 09:31:35;;;;;;;17.60;11.43;;;;;;;;;;4399688;32;318192;-86
2023/01/12 09:34:02;;;;;;;20.33;12.13;;;;;;;;;;4389749;32;318317;-82
2023/01/12 09:36:30;;;;;;;22.13;10.63;;;;;;;;;;4400274;32;326987;-87
2023/01/12 09:39:00;;;;;;;21.27;13.33;;;;;;;;;;4389310;32;318265;-85
2023/01/12 09:47:09;;;;;;;22.60;10.53;;;;;;;;;;4374595;32;318233;-87
2023/01/12 09:49:40;;;;;;;19.23;12.30;;;;;;;;;;4384247;32;318181;-85
2023/01/12 09:52:14;;;;;;;20.63;11.93;;;;;;;;;;4374835;32;317810;-87
2023/01/12 09:54:42;;;;;;;24.97;12.13;;;;;;;;;;4390935;32;317310;-82
2023/01/12 09:57:27;;;;;;;20.90;8.77;;;;;;;;;;4376976;32;318111;-87
2023/01/12 10:00:01;;;;;;;19.53;10.57;;;;;;;;;;4381555;32;316695;-88
2023/01/12 10:02:32;;;;;;;18.27;10.63;;;;;;;;;;4370857;32;420707;-89
2023/01/12 10:05:00;;;;;;;43.57;25.73;;;;;;;;;;4374770;32;317684;-91
2023/01/12 10:07:27;;;;;;;13.73;8.77;;;;;;;;;;4396533;32;318322;-84
2023/01/12 10:09:54;;;;;;;16.07;7.83;;;;;;;;;;4412847;32;317456;-84
2023/01/12 10:12:29;;;;;;;10.87;7.90;;;;;;;;;;4406326;32;316535;-86
2023/01/12 10:15:26;;;;;;;12.40;7.80;;;;;;;;;;4403447;32;317007;-89
2023/01/12 10:18:01;;;;;;;11.63;6.20;;;;;;;;;;4412199;32;316557;-89
2023/01/12 10:20:35;;;;;;;20.10;6.03;;;;;;;;;;4399879;32;418141;-86
2023/01/12 10:23:11;;;;;;;9.07;6.10;;;;;;;;;;4402848;32;317213;-86
2023/01/12 10:25:41;;;;;;;12.20;6.83;;;;;;;;;;4399329;32;315854;-86
2023/01/12 10:28:14;;;;;;;12.67;9.03;;;;;;;;;;4387316;32;317459;-86
2023/01/12 10:30:42;;;;;;;4.80;3.90;;;;;;;;;;4397445;32;317133;-88
2023/01/12 10:33:15;;;;;;;7.80;4.10;;;;;;;;;;4397301;32;316137;-86
2023/01/12 10:35:53;;;;;;;5.47;3.40;;;;;;;;;;4412401;32;315831;-85
2023/01/12 10:38:23;;;;;;;7.90;4.37;;;;;;;;;;4402341;32;316210;-89
2023/01/12 10:41:12;;;;;;;9.67;5.80;;;;;;;;;;4411080;32;320325;-88
2023/01/12 10:43:41;;;;;;;8.90;4.67;;;;;;;;;;4399852;32;416190;-85
2023/01/12 10:46:17;;;;;;;6.77;5.37;;;;;;;;;;4402947;32;316525;-86
2023/01/12 10:48:45;;;;;;;17.57;8.33;;;;;;;;;;4412767;32;316563;-86
2023/01/12 10:51:26;;;;;;;8.97;5.00;;;;;;;;;;4403039;32;317026;-86
2023/01/12 10:53:57;;;;;;;11.73;6.83;;;;;;;;;;4411179;32;315897;-83
2023/01/12 10:56:34;;;;;;;13.60;6.17;;;;;;;;;;4402705;32;416486;-86
2023/01/12 10:59:03;;;;;;;10.73;5.90;;;;;;;;;;4405817;32;317680;-86
2023/01/12 11:01:45;;;;;;;8.33;5.67;;;;;;;;;;4412978;32;316365;-85
2023/01/12 11:04:14;;;;;;;10.13;7.63;;;;;;;;;;4390561;32;316131;-85
2023/01/12 11:06:44;;;;;;;21.30;6.80;;;;;;;;;;4407340;32;316479;-85
2023/01/12 11:09:24;;;;;;;8.53;7.00;;;;;;;;;;4391055;32;317220;-87
2023/01/12 11:11:55;;;;;;;9.07;6.90;;;;;;;;;;4402880;32;316095;-83
2023/01/12 11:14:31;;;;;;;9.20;7.07;;;;;;;;;;4401893;32;414868;-86
2023/01/12 11:17:17;;;;;;;10.43;7.57;;;;;;;;;;4394130;32;317601;-85
2023/01/12 11:19:47;;;;;;;12.37;7.37;;;;;;;;;;4425025;32;317125;-86
2023/01/12 11:22:20;;;;;;;17.23;8.50;;;;;;;;;;4401838;32;335391;-87
2023/01/12 11:24:54;;;;;;;15.13;9.20;;;;;;;;;;4413605;32;317741;-84
2023/01/12 11:27:28;;;;;;;11.37;9.07;;;;;;;;;;4405417;32;317914;-79
2023/01/12 11:30:00;;;;;;;7.80;6.63;;;;;;;;;;4400120;32;317231;-81
2023/01/12 11:32:38;;;;;;;9.90;7.03;;;;;;;;;;4385146;32;415046;-83
2023/01/12 11:35:19;;;;;;;10.30;5.93;;;;;;;;;;4388705;32;316276;-85
2023/01/12 11:37:46;;;;;;;13.10;8.63;;;;;;;;;;4399586;32;316961;-90
2023/01/12 11:40:23;;;;;;;12.40;7.03;;;;;;;;;;4390084;32;317176;-90
2023/01/12 11:45:45;;;;;;;10.70;4.97;;;;;;;;;;4391753;32;388001;-88
2023/01/12 11:48:23;;;;;;;14.90;8.80;;;;;;;;;;4410530;32;315369;-88
2023/01/12 11:50:53;;;;;;;11.13;7.03;;;;;;;;;;4416760;32;315325;-92
2023/01/12 11:53:22;;;;;;;7.67;6.27;;;;;;;;;;4396162;32;317430;-93
2023/01/12 11:56:01;;;;;;;8.70;6.80;;;;;;;;;;4402168;32;315857;-87
2023/01/12 11:58:34;;;;;;;7.33;5.43;;;;;;;;;;4388428;32;416595;-90
2023/01/12 12:01:09;;;;;;;7.17;5.73;;;;;;;;;;4400141;32;315622;-89
2023/01/12 12:03:54;;;;;;;9.60;7.33;;;;;;;;;;4414691;32;315529;-87
2023/01/12 12:06:40;;;;;;;15.93;8.87;;;;;;;;;;4395358;32;316367;-84
2023/01/12 12:09:21;;;;;;;13.27;5.73;;;;;;;;;;4404449;32;316537;-88
2023/01/12 12:11:55;;;;;;;7.73;5.67;;;;;;;;;;4412875;32;357118;-81
2023/01/12 12:14:38;;;;;;;10.70;6.93;;;;;;;;;;4400275;32;418021;-88
2023/01/12 12:17:10;;;;;;;9.03;6.00;;;;;;;;;;4404268;32;316590;-85
2023/01/12 12:19:47;;;;;;;6.20;4.97;;;;;;;;;;4414825;32;316376;-86
2023/01/12 12:22:26;;;;;;;8.23;5.80;;;;;;;;;;4404733;32;316528;-86
2023/01/12 12:25:08;;;;;;;6.60;4.80;;;;;;;;;;4412367;32;336474;-84
2023/01/12 12:27:52;;;;;;;10.87;5.97;;;;;;;;;;4401145;32;416026;-84
2023/01/12 12:30:46;;;;;;;9.60;6.03;;;;;;;;;;4403009;32;316599;-81
2023/01/12 12:33:22;;;;;;;17.47;10.50;;;;;;;;;;4402948;32;316257;-80
2023/01/12 12:36:05;;;;;;;13.27;8.27;;;;;;;;;;4411942;32;318806;-84
2023/01/12 12:38:48;;;;;;;33.07;11.83;;;;;;;;;;4399511;32;418862;-83
2023/01/12 12:47:45;;;;;;;14.17;9.63;;;;;;;;;;4392591;32;317144;-82
2023/01/12 12:50:17;;;;;;;10.43;6.03;;;;;;;;;;4387487;32;317398;-84
2023/01/12 12:52:48;;;;;;;12.57;9.33;;;;;;;;;;4398930;32;316731;-83
2023/01/12 12:55:15;;;;;;;24.93;15.03;;;;;;;;;;4389784;32;317163;-80
2023/01/12 12:58:02;;;;;;;18.93;12.83;;;;;;;;;;4399812;32;319931;-81
2023/01/12 13:00:41;;;;;;;29.13;12.83;;;;;;;;;;4399368;32;419629;-85
2023/01/12 13:03:08;;;;;;;9.77;6.27;;;;;;;;;;4400401;32;318677;-81
2023/01/12 13:05:47;;;;;;;16.57;5.57;;;;;;;;;;4412375;32;317301;-85
2023/01/12 13:08:19;;;;;;;13.40;6.93;;;;;;;;;;4402259;32;318309;-82
2023/01/12 13:10:54;;;;;;;27.43;15.33;;;;;;;;;;4412759;32;316706;-82
2023/01/12 13:13:39;;;;;;;26.90;15.70;;;;;;;;;;4399675;32;418659;-84
2023/01/12 13:16:45;;;;;;;35.30;21.20;;;;;;;;;;4400235;32;356357;-83
2023/01/12 13:19:33;;;;;;;11.03;7.10;;;;;;;;;;4398748;32;318650;-82
2023/01/12 13:22:18;;;;;;;8.63;6.70;;;;;;;;;;4402792;32;318321;-83
2023/01/12 13:24:47;;;;;;;12.53;7.23;;;;;;;;;;4410594;32;316271;-83
2023/01/12 13:27:49;;;;;;;39.87;22.57;;;;;;;;;;4387117;32;316582;-82
2023/01/12 13:30:22;;;;;;;26.47;14.93;;;;;;;;;;4388251;32;318352;-79
2023/01/12 13:32:59;;;;;;;44.10;25.37;;;;;;;;;;4397621;32;318474;-84
2023/01/12 13:35:59;;;;;;;20.70;14.17;;;;;;;;;;4390727;32;418428;-83
2023/01/12 13:39:05;;;;;;;88.93;47.53;;;;;;;;;;4394196;32;419922;-84
2023/01/12 13:44:27;;;;;;;30.33;19.20;;;;;;;;;;4402130;32;319926;-84
2023/01/12 13:47:06;;;;;;;33.70;19.40;;;;;;;;;;4412035;32;318407;-79
2023/01/12 13:49:35;;;;;;;13.63;9.37;;;;;;;;;;4398904;32;419609;-85
2023/01/12 13:52:06;;;;;;;6.07;4.67;;;;;;;;;;4400424;32;352559;-84
2023/01/12 13:54:34;;;;;;;5.90;4.63;;;;;;;;;;4412652;32;317153;-83
2023/01/12 13:57:05;;;;;;;10.83;8.43;;;;;;;;;;4401449;32;316304;-82
2023/01/12 13:59:34;;;;;;;13.70;6.23;;;;;;;;;;4412339;32;317209;-84
2023/01/12 14:02:02;;;;;;;8.00;5.10;;;;;;;;;;4401726;32;318525;-82
2023/01/12 14:04:48;;;;;;;11.37;6.23;;;;;;;;;;4413045;32;315552;-83
2023/01/12 14:07:25;;;;;;;7.17;5.37;;;;;;;;;;4388772;32;317589;-82
2023/01/12 14:10:03;;;;;;;9.53;5.97;;;;;;;;;;4406125;32;316667;-81
2023/01/12 14:12:58;;;;;;;8.60;6.27;;;;;;;;;;4398091;32;416922;-83
2023/01/12 14:18:21;;;;;;;15.90;9.33;;;;;;;;;;4402599;32;317333;-83
2023/01/12 14:20:51;;;;;;;13.20;9.10;;;;;;;;;;4398494;32;316670;-84
2023/01/12 14:23:23;;;;;;;15.23;8.03;;;;;;;;;;4386989;32;317258;-83
2023/01/12 14:26:13;;;;;;;13.37;9.00;;;;;;;;;;4397824;32;317409;-80
2023/01/12 14:28:42;;;;;;;20.70;14.50;;;;;;;;;;4383297;32;417638;-83
2023/01/12 14:31:18;;;;;;;32.87;16.47;;;;;;;;;;4385798;32;319386;-83
2023/01/12 14:33:52;;;;;;;21.50;12.00;;;;;;;;;;4401105;32;317531;-83
2023/01/12 14:36:23;;;;;;;30.53;15.53;;;;;;;;;;4396261;32;318588;-83
2023/01/12 14:38:52;;;;;;;26.70;16.63;;;;;;;;;;4412721;32;318693;-84
2023/01/12 14:46:59;;;;;;;111.10;57.87;;;;;;;;;;4402286;32;319250;-81
2023/01/12 14:49:28;;;;;;;102.23;55.30;;;;;;;;;;4411219;32;320491;-81
2023/01/12 14:51:56;;;;;;;78.57;41.07;;;;;;;;;;4412320;32;319874;-84
2023/01/12 14:54:26;;;;;;;48.87;25.27;;;;;;;;;;4395518;32;418261;-82
2023/01/12 14:56:58;;;;;;;35.90;16.73;;;;;;;;;;4395824;32;319101;-82
2023/01/12 14:59:29;;;;;;;31.47;14.77;;;;;;;;;;4384242;32;419813;-80
2023/01/12 15:02:21;;;;;;;22.67;11.77;;;;;;;;;;4398319;32;319452;-80
2023/01/12 15:04:53;;;;;;;24.40;12.63;;;;;;;;;;4412466;32;319374;-84
2023/01/12 15:07:22;;;;;;;52.47;26.13;;;;;;;;;;4400850;32;355738;-83
2023/01/12 15:09:54;;;;;;;52.03;29.93;;;;;;;;;;4411112;32;319647;-84
2023/01/12 15:12:25;;;;;;;48.23;27.77;;;;;;;;;;4402436;32;319407;-80
2023/01/12 15:14:54;;;;;;;55.43;30.30;;;;;;;;;;4411824;32;319509;-84
2023/01/12 15:25:40;;;;;;;61.53;32.73;;;;;;;;;;4401777;32;390397;-82